Cmb Sakura — 3EGO3 — position and weather

sailwx.info

Track history (hours):
 
Tides and Currents Weather Stations Pressure Air Temp Water Temp Dewpoint Dewpoint Depression Visibility Wind Speed Wind Dir Waves Ship Positions

Cmb Sakura

Last reported at 2018-Feb-15 20:13 UTC. Time now 2018-Feb-18 20:12 UTC.
Position N 01°24' E 104°27'.

Length 225 m; draft 13.1 m.

Type: Cargo ship. MMSI: 371784000.

Date/timePositionNaut miles runAvg speedWind from/ knotsBaromVisibWave heightAir tempDewpointWater temp
2018-Feb-15 20:13N 01°24' E 104°27'311.1
2018-Feb-15 19:57N 01°22' E 104°25'2410.6
2018-Feb-15 17:40N 01°15' E 104°02'210.2
2018-Feb-15 17:30N 01°15' E 104°00'4 7.6
2018-Feb-15 16:59N 01°16' E 103°56'1 1.0
2018-Feb-15 16:21N 01°16' E 103°56'0 0.0
2018-Feb-15 15:12N 01°16' E 103°56'0 0.0
2018-Feb-15 14:48N 01°16' E 103°56'0 0.0
2018-Feb-15 14:21N 01°16' E 103°56'0 0.0
2018-Feb-15 14:00N 01°16' E 103°56'0 0.0
2018-Feb-15 13:30N 01°16' E 103°56'0 0.0
2018-Feb-15 12:51N 01°16' E 103°56'0 0.1
2018-Feb-15 12:03N 01°17' E 103°56'0 0.4
2018-Feb-15 11:42N 01°17' E 103°56'0 0.0
2018-Feb-15 11:30N 01°17' E 103°56'0 0.1
2018-Feb-15 10:51N 01°17' E 103°56'0 0.2
2018-Feb-15 10:30N 01°17' E 103°56'0 0.0
2018-Feb-15 10:00N 01°17' E 103°56'0 0.0
2018-Feb-15 09:30N 01°17' E 103°56'0 0.0
2018-Feb-15 08:54N 01°17' E 103°56'0 0.2
2018-Feb-15 08:30N 01°17' E 103°56'0 0.0
2018-Feb-15 07:54N 01°17' E 103°56'0 0.0
2018-Feb-15 07:30N 01°17' E 103°56'0 0.1
2018-Feb-15 07:00N 01°17' E 103°56'0 0.1
2018-Feb-15 06:18N 01°17' E 103°56'0 0.0
2018-Feb-15 05:54N 01°17' E 103°56'0 0.0
2018-Feb-15 05:27N 01°17' E 103°56'0 0.2
2018-Feb-15 04:57N 01°17' E 103°56'0 0.2
2018-Feb-15 04:30N 01°16' E 103°56'0 0.2
2018-Feb-15 04:00N 01°16' E 103°56'0 0.1
2018-Feb-15 03:27N 01°16' E 103°56'0 0.1
2018-Feb-15 02:54N 01°16' E 103°56'0 0.0
2018-Feb-15 02:30N 01°16' E 103°56'0 0.0
2018-Feb-15 02:00N 01°16' E 103°56'0 0.3
2018-Feb-15 01:30N 01°16' E 103°56'1 2.5
2018-Feb-15 01:00N 01°15' E 103°57'3 5.1
2018-Feb-15 00:30N 01°13' E 103°55'4 8.4
2018-Feb-15 00:00N 01°11' E 103°51'4 8.9
2018-Feb-14 23:30N 01°09' E 103°47'5 9.7
2018-Feb-14 22:59N 01°06' E 103°44'510.2
2018-Feb-14 22:30N 01°03' E 103°40'5 8.9
2018-Feb-14 21:59N 01°05' E 103°35'510.2
2018-Feb-14 21:30N 01°07' E 103°31'5 9.7
2018-Feb-14 20:57N 01°10' E 103°27'4 9.8
2018-Feb-14 20:30N 01°13' E 103°23'610.0
2018-Feb-14 19:52N 01°17' E 103°18'  
Track history (hours):
 
Tides and Currents Weather Stations Pressure Air Temp Water Temp Dewpoint Dewpoint Depression Visibility Wind Speed Wind Dir Waves Ship Positions

Cmb Sakura

Last reported at 2018-Feb-15 20:13 UTC. Time now 2018-Feb-18 20:12 UTC.
Position N 01°24' E 104°27'.

Length 225 m; draft 13.1 m.

Type: Cargo ship. MMSI: 371784000.

Date/timePositionNaut miles runAvg speedWind from/ knotsBaromVisibWave heightAir tempDewpointWater temp
2018-Feb-15 20:13N 01°24' E 104°27'311.1
2018-Feb-15 19:57N 01°22' E 104°25'2410.6
2018-Feb-15 17:40N 01°15' E 104°02'210.2
2018-Feb-15 17:30N 01°15' E 104°00'4 7.6
2018-Feb-15 16:59N 01°16' E 103°56'1 1.0
2018-Feb-15 16:21N 01°16' E 103°56'0 0.0
2018-Feb-15 15:12N 01°16' E 103°56'0 0.0
2018-Feb-15 14:48N 01°16' E 103°56'0 0.0
2018-Feb-15 14:21N 01°16' E 103°56'0 0.0
2018-Feb-15 14:00N 01°16' E 103°56'0 0.0
2018-Feb-15 13:30N 01°16' E 103°56'0 0.0
2018-Feb-15 12:51N 01°16' E 103°56'0 0.1
2018-Feb-15 12:03N 01°17' E 103°56'0 0.4
2018-Feb-15 11:42N 01°17' E 103°56'0 0.0
2018-Feb-15 11:30N 01°17' E 103°56'0 0.1
2018-Feb-15 10:51N 01°17' E 103°56'0 0.2
2018-Feb-15 10:30N 01°17' E 103°56'0 0.0
2018-Feb-15 10:00N 01°17' E 103°56'0 0.0
2018-Feb-15 09:30N 01°17' E 103°56'0 0.0
2018-Feb-15 08:54N 01°17' E 103°56'0 0.2
2018-Feb-15 08:30N 01°17' E 103°56'0 0.0
2018-Feb-15 07:54N 01°17' E 103°56'0 0.0
2018-Feb-15 07:30N 01°17' E 103°56'0 0.1
2018-Feb-15 07:00N 01°17' E 103°56'0 0.1
2018-Feb-15 06:18N 01°17' E 103°56'0 0.0
2018-Feb-15 05:54N 01°17' E 103°56'0 0.0
2018-Feb-15 05:27N 01°17' E 103°56'0 0.2
2018-Feb-15 04:57N 01°17' E 103°56'0 0.2
2018-Feb-15 04:30N 01°16' E 103°56'0 0.2
2018-Feb-15 04:00N 01°16' E 103°56'0 0.1
2018-Feb-15 03:27N 01°16' E 103°56'0 0.1
2018-Feb-15 02:54N 01°16' E 103°56'0 0.0
2018-Feb-15 02:30N 01°16' E 103°56'0 0.0
2018-Feb-15 02:00N 01°16' E 103°56'0 0.3
2018-Feb-15 01:30N 01°16' E 103°56'1 2.5
2018-Feb-15 01:00N 01°15' E 103°57'3 5.1
2018-Feb-15 00:30N 01°13' E 103°55'4 8.4
2018-Feb-15 00:00N 01°11' E 103°51'4 8.9
2018-Feb-14 23:30N 01°09' E 103°47'5 9.7
2018-Feb-14 22:59N 01°06' E 103°44'510.2
2018-Feb-14 22:30N 01°03' E 103°40'5 8.9
2018-Feb-14 21:59N 01°05' E 103°35'510.2
2018-Feb-14 21:30N 01°07' E 103°31'5 9.7
2018-Feb-14 20:57N 01°10' E 103°27'4 9.8
2018-Feb-14 20:30N 01°13' E 103°23'610.0
2018-Feb-14 19:52N 01°17' E 103°18'  

Dump ship's entire track history